createdAt,value
2024-03-28T00:00:14.333Z,798.16
2024-03-28T00:00:24.345Z,798.37
2024-03-28T00:00:34.352Z,798.44
2024-03-28T00:00:44.349Z,798.27
2024-03-28T00:00:55.944Z,798.38
2024-03-28T00:01:04.368Z,798.32
2024-03-28T00:01:15.139Z,798.42
2024-03-28T00:01:24.356Z,798.31
2024-03-28T00:01:34.376Z,798.23
2024-03-28T00:01:44.379Z,798.47
2024-03-28T00:01:54.354Z,798.85
2024-03-28T00:02:14.356Z,797.97
2024-03-28T00:02:24.349Z,798.18
2024-03-28T00:02:34.345Z,798.89
2024-03-28T00:02:44.378Z,799.10
2024-03-28T00:02:54.362Z,798.73
2024-03-28T00:03:06.157Z,798.84
2024-03-28T00:03:14.362Z,798.42
2024-03-28T00:03:24.363Z,798.06
2024-03-28T00:03:34.360Z,798.06
2024-03-28T00:03:54.361Z,798.75
2024-03-28T00:04:04.356Z,798.93
2024-03-28T00:04:14.408Z,798.75
2024-03-28T00:04:24.381Z,798.84
2024-03-28T00:04:34.369Z,798.91
2024-03-28T00:04:44.352Z,798.76
2024-03-28T00:04:54.366Z,798.57
2024-03-28T00:05:04.360Z,798.78
2024-03-28T00:05:24.362Z,798.55
2024-03-28T00:05:34.364Z,798.38
2024-03-28T00:05:44.357Z,798.66
2024-03-28T00:05:54.371Z,798.59
2024-03-28T00:06:04.368Z,798.93
2024-03-28T00:06:14.372Z,798.96
2024-03-28T00:06:24.393Z,799.05
2024-03-28T00:06:34.389Z,799.04
2024-03-28T00:06:44.368Z,798.76
2024-03-28T00:06:54.370Z,798.95
2024-03-28T00:07:04.375Z,798.61
2024-03-28T00:07:14.387Z,798.90
2024-03-28T00:07:24.376Z,798.81
2024-03-28T00:07:34.400Z,798.81
2024-03-28T00:07:44.372Z,798.67
2024-03-28T00:07:54.373Z,798.51
2024-03-28T00:08:04.363Z,798.48
2024-03-28T00:08:14.394Z,798.55
2024-03-28T00:08:34.402Z,798.49
2024-03-28T00:08:44.389Z,798.39
2024-03-28T00:08:54.379Z,798.12
2024-03-28T00:09:04.389Z,797.99
2024-03-28T00:09:14.397Z,797.75
2024-03-28T00:09:24.382Z,797.54
2024-03-28T00:09:44.388Z,797.43
2024-03-28T00:09:54.414Z,797.52
2024-03-28T00:10:04.400Z,797.23
2024-03-28T00:10:14.439Z,797.09
2024-03-28T00:10:24.401Z,796.88
2024-03-28T00:10:34.390Z,796.80
2024-03-28T00:10:44.389Z,796.94
2024-03-28T00:10:54.414Z,796.74
2024-03-28T00:11:04.402Z,796.77
2024-03-28T00:11:24.391Z,796.62
2024-03-28T00:11:34.404Z,796.59
2024-03-28T00:11:44.425Z,796.72
2024-03-28T00:11:54.482Z,796.76
2024-03-28T00:12:04.396Z,796.68
2024-03-28T00:12:14.389Z,796.77
2024-03-28T00:12:24.412Z,796.70
2024-03-28T00:12:34.398Z,796.81
2024-03-28T00:12:54.413Z,796.93
2024-03-28T00:13:04.397Z,796.79
2024-03-28T00:13:14.425Z,796.91
2024-03-28T00:13:24.418Z,796.85
2024-03-28T00:13:34.472Z,797.04
2024-03-28T00:13:44.407Z,796.90
2024-03-28T00:14:04.410Z,796.78
2024-03-28T00:14:14.419Z,796.82
2024-03-28T00:14:24.406Z,796.77
2024-03-28T00:14:34.414Z,796.87
2024-03-28T00:14:44.417Z,796.84
2024-03-28T00:14:54.412Z,796.82
2024-03-28T00:15:04.414Z,796.71
2024-03-28T00:15:14.422Z,796.60
2024-03-28T00:15:24.414Z,796.55
2024-03-28T00:15:34.404Z,796.58
2024-03-28T00:15:44.433Z,796.67
2024-03-28T00:15:54.417Z,796.49
2024-03-28T00:16:04.446Z,796.54
2024-03-28T00:16:14.440Z,796.54
2024-03-28T00:16:24.401Z,796.43
2024-03-28T00:16:34.423Z,796.44
2024-03-28T00:16:54.403Z,796.42
2024-03-28T00:17:04.425Z,796.25
2024-03-28T00:17:14.422Z,796.31
2024-03-28T00:17:24.458Z,796.20
2024-03-28T00:17:34.455Z,796.10
2024-03-28T00:17:44.422Z,795.96
2024-03-28T00:17:54.422Z,795.84
2024-03-28T00:18:05.118Z,796.06
2024-03-28T00:18:14.437Z,796.01
2024-03-28T00:18:34.437Z,795.82
2024-03-28T00:18:44.429Z,796.23
2024-03-28T00:18:54.437Z,795.53
2024-03-28T00:19:04.432Z,795.94
2024-03-28T00:19:16.262Z,796.00
2024-03-28T00:19:30.618Z,796.60
2024-03-28T00:19:36.367Z,796.12
2024-03-28T00:19:45.117Z,795.78
2024-03-28T00:19:54.433Z,796.08
2024-03-28T00:20:04.420Z,795.71
2024-03-28T00:20:14.420Z,795.87
2024-03-28T00:20:34.441Z,795.75
2024-03-28T00:20:44.431Z,795.96
2024-03-28T00:20:54.442Z,796.00
2024-03-28T00:21:04.455Z,795.88
2024-03-28T00:21:14.421Z,796.08
2024-03-28T00:21:24.442Z,796.05
2024-03-28T00:21:44.441Z,796.13
2024-03-28T00:21:54.436Z,796.55
2024-03-28T00:22:04.448Z,795.78
2024-03-28T00:22:14.449Z,795.76
2024-03-28T00:22:24.453Z,795.82
2024-03-28T00:22:34.432Z,795.83
2024-03-28T00:22:44.475Z,795.79
2024-03-28T00:22:54.429Z,795.70
2024-03-28T00:23:04.440Z,795.75
2024-03-28T00:23:14.478Z,795.72
2024-03-28T00:23:34.450Z,795.74
2024-03-28T00:23:44.433Z,795.65
2024-03-28T00:23:54.478Z,795.59
2024-03-28T00:24:04.496Z,795.60
2024-03-28T00:24:14.444Z,795.64
2024-03-28T00:24:25.131Z,795.52
2024-03-28T00:24:34.448Z,795.47
2024-03-28T00:24:44.446Z,795.49
2024-03-28T00:24:54.461Z,795.43
2024-03-28T00:25:14.489Z,795.73
2024-03-28T00:25:24.438Z,795.82
2024-03-28T00:25:34.450Z,795.54
2024-03-28T00:25:44.452Z,795.54
2024-03-28T00:25:54.454Z,795.71
2024-03-28T00:26:04.453Z,795.56
2024-03-28T00:26:24.455Z,795.80
2024-03-28T00:26:34.467Z,795.53
2024-03-28T00:26:44.460Z,795.58
2024-03-28T00:26:54.458Z,795.48
2024-03-28T00:27:04.449Z,795.50
2024-03-28T00:27:14.471Z,795.34
2024-03-28T00:27:24.488Z,795.45
2024-03-28T00:27:35.123Z,795.30
2024-03-28T00:27:44.464Z,795.51
2024-03-28T00:27:54.457Z,795.37
2024-03-28T00:28:04.465Z,795.14
2024-03-28T00:28:14.479Z,795.13
2024-03-28T00:28:34.466Z,795.24
2024-03-28T00:28:44.464Z,795.18
2024-03-28T00:28:54.457Z,794.77
2024-03-28T00:29:04.481Z,795.23
2024-03-28T00:29:14.460Z,795.21
2024-03-28T00:29:24.472Z,795.42
2024-03-28T00:29:34.514Z,795.01
2024-03-28T00:29:44.475Z,795.08
2024-03-28T00:30:04.457Z,795.00
2024-03-28T00:30:14.485Z,794.82
2024-03-28T00:30:24.474Z,794.86
2024-03-28T00:30:34.474Z,795.00
2024-03-28T00:30:44.468Z,794.99
2024-03-28T00:30:54.482Z,795.00
2024-03-28T00:31:05.135Z,794.90
2024-03-28T00:31:14.497Z,795.17
2024-03-28T00:31:24.472Z,794.83
2024-03-28T00:31:34.634Z,794.84
2024-03-28T00:31:44.480Z,794.82
2024-03-28T00:31:54.480Z,794.70
2024-03-28T00:32:14.472Z,794.73
2024-03-28T00:32:24.507Z,794.78
2024-03-28T00:32:34.490Z,794.71
2024-03-28T00:32:44.483Z,794.94
2024-03-28T00:32:54.475Z,794.85
2024-03-28T00:33:04.485Z,794.93
2024-03-28T00:33:17.239Z,795.02
2024-03-28T00:33:24.512Z,795.00
2024-03-28T00:33:34.476Z,794.90
2024-03-28T00:33:44.495Z,794.55
2024-03-28T00:33:54.480Z,794.65
2024-03-28T00:34:04.495Z,795.04
2024-03-28T00:34:14.524Z,794.67
2024-03-28T00:34:24.493Z,794.82
2024-03-28T00:34:34.557Z,794.90
2024-03-28T00:34:54.479Z,794.53
2024-03-28T00:35:04.492Z,794.57
2024-03-28T00:35:14.494Z,794.50
2024-03-28T00:35:24.490Z,794.75
2024-03-28T00:35:34.499Z,794.49
2024-03-28T00:35:44.491Z,794.42
2024-03-28T00:35:54.488Z,794.40
2024-03-28T00:36:04.523Z,794.38
2024-03-28T00:36:14.498Z,794.21
2024-03-28T00:36:24.486Z,794.21
2024-03-28T00:36:34.485Z,794.11
2024-03-28T00:36:44.524Z,793.91
2024-03-28T00:36:54.493Z,793.82
2024-03-28T00:37:04.592Z,793.94
2024-03-28T00:37:14.524Z,793.75
2024-03-28T00:37:24.516Z,793.75
2024-03-28T00:37:34.554Z,793.69
2024-03-28T00:37:44.512Z,793.72
2024-03-28T00:38:04.549Z,793.35
2024-03-28T00:38:14.489Z,793.33
2024-03-28T00:38:24.516Z,793.36
2024-03-28T00:38:34.515Z,793.30
2024-03-28T00:38:44.499Z,793.39
2024-03-28T00:38:54.510Z,793.46
2024-03-28T00:39:04.525Z,793.29
2024-03-28T00:39:14.492Z,793.20
2024-03-28T00:39:34.514Z,793.48
2024-03-28T00:39:44.513Z,793.39
2024-03-28T00:39:54.518Z,793.26
2024-03-28T00:40:04.510Z,793.72
2024-03-28T00:40:14.531Z,793.55
2024-03-28T00:40:24.501Z,793.13
2024-03-28T00:40:34.518Z,793.08
2024-03-28T00:40:44.511Z,793.15
2024-03-28T00:40:55.151Z,792.89
2024-03-28T00:41:04.505Z,792.86
2024-03-28T00:41:14.514Z,793.50
2024-03-28T00:41:24.523Z,793.01
2024-03-28T00:41:34.520Z,793.60
2024-03-28T00:41:44.527Z,793.26
2024-03-28T00:42:04.564Z,793.05
2024-03-28T00:42:14.519Z,792.73
2024-03-28T00:42:24.541Z,792.87
2024-03-28T00:42:34.520Z,792.91
2024-03-28T00:42:44.510Z,792.63
2024-03-28T00:42:54.532Z,792.72
2024-03-28T00:43:04.521Z,792.47
2024-03-28T00:43:14.542Z,792.30
2024-03-28T00:43:24.555Z,792.24
2024-03-28T00:43:34.527Z,792.29
2024-03-28T00:43:44.523Z,792.19
2024-03-28T00:43:54.576Z,791.87
2024-03-28T00:44:04.534Z,791.93
2024-03-28T00:44:14.530Z,792.00
2024-03-28T00:44:34.559Z,791.80
2024-03-28T00:44:44.527Z,791.77
2024-03-28T00:44:54.530Z,791.57
2024-03-28T00:45:04.550Z,791.47
2024-03-28T00:45:14.539Z,791.52
2024-03-28T00:45:24.517Z,791.23
2024-03-28T00:45:34.549Z,791.18
2024-03-28T00:45:54.535Z,791.12
2024-03-28T00:46:04.539Z,791.31
2024-03-28T00:46:14.551Z,791.32
2024-03-28T00:46:24.546Z,791.17
2024-03-28T00:46:34.548Z,791.20
2024-03-28T00:46:44.538Z,791.12
2024-03-28T00:46:54.536Z,791.27
2024-03-28T00:47:04.542Z,791.20
2024-03-28T00:47:14.541Z,791.04
2024-03-28T00:47:24.535Z,791.38
2024-03-28T00:47:34.649Z,791.08
2024-03-28T00:47:44.539Z,791.10
2024-03-28T00:47:54.528Z,791.20
2024-03-28T00:48:04.542Z,791.18
2024-03-28T00:48:14.564Z,791.27
2024-03-28T00:48:24.529Z,791.07
2024-03-28T00:48:44.530Z,791.28
2024-03-28T00:48:54.547Z,791.49
2024-03-28T00:49:04.566Z,791.54
2024-03-28T00:49:14.599Z,791.53
2024-03-28T00:49:24.569Z,791.83
2024-03-28T00:49:34.560Z,791.70
2024-03-28T00:49:44.549Z,791.59
2024-03-28T00:49:54.602Z,791.64
2024-03-28T00:50:04.597Z,791.96
2024-03-28T00:50:14.575Z,791.82
2024-03-28T00:50:24.550Z,791.95
2024-03-28T00:50:34.563Z,792.18
2024-03-28T00:50:44.557Z,792.54
2024-03-28T00:50:54.548Z,792.33
2024-03-28T00:51:14.566Z,792.27
2024-03-28T00:51:24.566Z,792.31
2024-03-28T00:51:34.556Z,792.37
2024-03-28T00:51:44.561Z,792.40
2024-03-28T00:51:54.583Z,792.59
2024-03-28T00:52:05.140Z,792.61
2024-03-28T00:52:14.588Z,792.42
2024-03-28T00:52:34.556Z,793.44
2024-03-28T00:52:44.571Z,792.55
2024-03-28T00:52:54.551Z,793.61
2024-03-28T00:53:04.562Z,793.45
2024-03-28T00:53:14.588Z,793.17
2024-03-28T00:53:24.564Z,792.74
2024-03-28T00:53:34.556Z,793.14
2024-03-28T00:53:44.615Z,793.65
2024-03-28T00:53:54.568Z,793.56
2024-03-28T00:54:04.559Z,793.45
2024-03-28T00:54:14.566Z,793.87
2024-03-28T00:54:24.612Z,793.61
2024-03-28T00:54:34.575Z,793.84
2024-03-28T00:54:54.579Z,793.86
2024-03-28T00:55:04.584Z,794.09
2024-03-28T00:55:14.574Z,794.26
2024-03-28T00:55:24.570Z,794.14
2024-03-28T00:55:35.113Z,794.18
2024-03-28T00:55:44.556Z,794.17
2024-03-28T00:55:56.431Z,794.35
2024-03-28T00:56:14.557Z,794.48
2024-03-28T00:56:24.576Z,794.45
2024-03-28T00:56:34.560Z,794.41
2024-03-28T00:56:44.562Z,794.41
2024-03-28T00:56:54.563Z,794.36
2024-03-28T00:57:04.570Z,794.86
2024-03-28T00:57:14.607Z,794.72
2024-03-28T00:57:24.575Z,795.21
2024-03-28T00:57:34.599Z,795.32
2024-03-28T00:57:44.565Z,795.31
2024-03-28T00:57:54.581Z,795.37
2024-03-28T00:58:04.588Z,795.21
2024-03-28T00:58:24.598Z,795.52
2024-03-28T00:58:34.567Z,795.42
2024-03-28T00:58:44.584Z,795.57
2024-03-28T00:58:54.572Z,796.44
2024-03-28T00:59:05.124Z,795.85
2024-03-28T00:59:14.574Z,795.84
2024-03-28T00:59:34.615Z,795.99
2024-03-28T00:59:44.578Z,795.74
2024-03-28T00:59:54.607Z,795.56
2024-03-28T01:00:04.600Z,795.79
2024-03-28T01:00:14.594Z,796.13
2024-03-28T01:00:24.610Z,795.96
2024-03-28T01:00:34.610Z,795.82
2024-03-28T01:00:44.596Z,796.05
2024-03-28T01:00:54.602Z,795.90
2024-03-28T01:01:04.617Z,796.10
2024-03-28T01:01:14.634Z,796.35
2024-03-28T01:01:24.593Z,795.89
2024-03-28T01:01:34.584Z,796.05
2024-03-28T01:01:44.600Z,795.84
2024-03-28T01:01:54.589Z,795.82
2024-03-28T01:02:05.133Z,795.92
2024-03-28T01:02:14.626Z,796.03
2024-03-28T01:02:24.589Z,795.62
2024-03-28T01:02:34.675Z,795.59
2024-03-28T01:02:54.604Z,795.72
2024-03-28T01:03:04.623Z,795.47
2024-03-28T01:03:14.597Z,795.34
2024-03-28T01:03:24.613Z,795.48
2024-03-28T01:03:34.647Z,795.65
2024-03-28T01:03:44.610Z,795.46
2024-03-28T01:03:54.601Z,795.74
2024-03-28T01:04:04.611Z,795.63
2024-03-28T01:04:14.634Z,795.61
2024-03-28T01:04:24.609Z,795.58
2024-03-28T01:04:44.701Z,795.80
2024-03-28T01:04:54.618Z,795.51
2024-03-28T01:05:04.617Z,795.69
2024-03-28T01:05:14.614Z,795.38
2024-03-28T01:05:24.625Z,795.42
2024-03-28T01:05:34.620Z,795.32
2024-03-28T01:05:54.617Z,796.23
2024-03-28T01:06:04.650Z,796.26
2024-03-28T01:06:14.621Z,796.24
2024-03-28T01:06:24.618Z,795.72
2024-03-28T01:06:34.632Z,795.91
2024-03-28T01:06:44.623Z,795.81
2024-03-28T01:06:54.628Z,797.26
2024-03-28T01:07:04.621Z,795.86
2024-03-28T01:07:14.649Z,795.83
2024-03-28T01:07:24.630Z,795.82
2024-03-28T01:07:34.677Z,796.14
2024-03-28T01:07:44.629Z,796.01
2024-03-28T01:07:54.624Z,796.42
2024-03-28T01:08:04.644Z,796.19
2024-03-28T01:08:14.627Z,795.93
2024-03-28T01:08:25.145Z,795.95
2024-03-28T01:08:34.618Z,795.81
2024-03-28T01:08:44.653Z,796.15
2024-03-28T01:08:54.625Z,795.93
2024-03-28T01:09:14.634Z,796.02
2024-03-28T01:09:24.623Z,796.23
2024-03-28T01:09:34.698Z,796.01
2024-03-28T01:09:44.757Z,795.83
2024-03-28T01:09:54.623Z,796.14
2024-03-28T01:10:04.640Z,795.98
2024-03-28T01:10:14.660Z,796.03
2024-03-28T01:10:24.642Z,795.86
2024-03-28T01:10:34.627Z,795.94
2024-03-28T01:10:44.665Z,795.65
2024-03-28T01:10:54.662Z,795.18
2024-03-28T01:11:04.657Z,795.50
2024-03-28T01:11:14.626Z,796.04
2024-03-28T01:11:24.651Z,796.13
2024-03-28T01:11:34.635Z,796.06
2024-03-28T01:11:44.743Z,795.21
2024-03-28T01:11:54.637Z,795.03
2024-03-28T01:12:14.649Z,794.99
2024-03-28T01:12:24.647Z,794.90
2024-03-28T01:12:34.654Z,794.90
2024-03-28T01:12:44.652Z,794.71
2024-03-28T01:12:54.651Z,794.70
2024-03-28T01:13:04.662Z,794.31
2024-03-28T01:13:14.695Z,796.50
2024-03-28T01:13:24.666Z,794.62
2024-03-28T01:13:34.647Z,794.52
2024-03-28T01:13:44.648Z,793.85
2024-03-28T01:13:54.654Z,793.68
2024-03-28T01:14:04.651Z,793.91
2024-03-28T01:14:14.656Z,793.45
2024-03-28T01:14:24.668Z,793.13
2024-03-28T01:14:34.642Z,792.90
2024-03-28T01:14:44.662Z,794.84
2024-03-28T01:14:54.659Z,793.12
2024-03-28T01:15:14.659Z,792.24
2024-03-28T01:15:24.661Z,792.15
2024-03-28T01:15:34.707Z,791.59
2024-03-28T01:15:44.655Z,791.88
2024-03-28T01:15:54.663Z,791.46
2024-03-28T01:16:04.676Z,791.13
2024-03-28T01:16:14.716Z,790.64
2024-03-28T01:16:24.654Z,790.22
2024-03-28T01:16:35.663Z,790.00
2024-03-28T01:16:44.663Z,790.01
2024-03-28T01:16:54.668Z,789.45
2024-03-28T01:17:04.665Z,789.89
2024-03-28T01:17:14.710Z,789.56
2024-03-28T01:17:24.674Z,789.29
2024-03-28T01:17:44.671Z,788.98
2024-03-28T01:17:54.674Z,788.95
2024-03-28T01:18:04.686Z,788.51
2024-03-28T01:18:14.668Z,788.56
2024-03-28T01:18:24.673Z,788.48
2024-03-28T01:18:34.674Z,788.37
2024-03-28T01:18:44.661Z,788.27
2024-03-28T01:18:54.676Z,788.22
2024-03-28T01:19:04.683Z,788.15
2024-03-28T01:19:14.725Z,788.18
2024-03-28T01:19:24.700Z,788.17
2024-03-28T01:19:34.693Z,788.96
2024-03-28T01:19:44.664Z,788.87
2024-03-28T01:19:54.685Z,789.00
2024-03-28T01:20:04.782Z,789.05
2024-03-28T01:20:14.693Z,789.30
2024-03-28T01:20:24.683Z,789.33
2024-03-28T01:20:34.692Z,789.66
2024-03-28T01:20:44.675Z,789.82
2024-03-28T01:20:54.679Z,790.12
2024-03-28T01:21:14.679Z,790.77
2024-03-28T01:21:24.668Z,791.43
2024-03-28T01:21:34.670Z,791.46
2024-03-28T01:21:44.684Z,791.49
2024-03-28T01:21:54.677Z,791.29
2024-03-28T01:22:04.688Z,791.64
2024-03-28T01:22:14.707Z,791.85
2024-03-28T01:22:25.641Z,792.74
2024-03-28T01:22:34.718Z,792.83
2024-03-28T01:22:44.673Z,792.96
2024-03-28T01:22:54.692Z,792.90
2024-03-28T01:23:04.742Z,792.64
2024-03-28T01:23:14.690Z,792.56
2024-03-28T01:23:34.697Z,792.98
2024-03-28T01:23:44.683Z,793.02
2024-03-28T01:23:54.703Z,792.30
2024-03-28T01:24:04.686Z,792.80
2024-03-28T01:24:14.694Z,792.13
2024-03-28T01:24:24.737Z,793.08
2024-03-28T01:24:44.689Z,793.48
2024-03-28T01:24:54.687Z,793.05
2024-03-28T01:25:04.711Z,793.11
2024-03-28T01:25:14.758Z,792.61
2024-03-28T01:25:24.690Z,792.38
2024-03-28T01:25:34.702Z,792.06
2024-03-28T01:25:44.703Z,792.02
2024-03-28T01:25:54.728Z,792.09
2024-03-28T01:26:04.709Z,792.37
2024-03-28T01:26:24.722Z,792.23
2024-03-28T01:26:34.691Z,791.64
2024-03-28T01:26:44.711Z,791.88
2024-03-28T01:26:54.706Z,792.64
2024-03-28T01:27:04.721Z,791.64
2024-03-28T01:27:14.698Z,791.84
2024-03-28T01:27:34.768Z,791.97
2024-03-28T01:27:44.715Z,791.78
2024-03-28T01:27:54.709Z,791.93
2024-03-28T01:28:04.721Z,791.64
2024-03-28T01:28:14.784Z,791.69
2024-03-28T01:28:24.721Z,791.71
2024-03-28T01:28:44.724Z,791.67
2024-03-28T01:28:54.711Z,791.72
2024-03-28T01:29:04.717Z,791.86
2024-03-28T01:29:14.817Z,791.80
2024-03-28T01:29:24.708Z,791.70
2024-03-28T01:29:34.738Z,791.71
2024-03-28T01:29:54.716Z,791.92
2024-03-28T01:30:04.724Z,792.01
2024-03-28T01:30:14.718Z,791.97
2024-03-28T01:30:24.719Z,791.89
2024-03-28T01:30:34.769Z,792.12
2024-03-28T01:30:44.718Z,791.89
2024-03-28T01:30:54.722Z,791.99
2024-03-28T01:31:04.723Z,792.24
2024-03-28T01:31:14.782Z,791.76
2024-03-28T01:31:24.712Z,792.28
2024-03-28T01:31:34.740Z,791.95
2024-03-28T01:31:44.724Z,791.87
2024-03-28T01:31:54.714Z,792.07
2024-03-28T01:32:04.717Z,792.29
2024-03-28T01:32:14.733Z,792.47
2024-03-28T01:32:24.787Z,792.20
2024-03-28T01:32:34.755Z,792.33
2024-03-28T01:32:44.740Z,792.30
2024-03-28T01:32:54.716Z,792.29
2024-03-28T01:33:14.746Z,792.56
2024-03-28T01:33:24.815Z,792.51
2024-03-28T01:33:34.728Z,792.32
2024-03-28T01:33:44.755Z,792.43
2024-03-28T01:33:54.748Z,792.50
2024-03-28T01:34:05.637Z,793.03
2024-03-28T01:34:14.747Z,792.46
2024-03-28T01:34:24.762Z,792.24
2024-03-28T01:34:34.728Z,792.58
2024-03-28T01:34:44.739Z,792.95
2024-03-28T01:34:54.733Z,792.94
2024-03-28T01:35:14.769Z,793.24
2024-03-28T01:35:24.732Z,793.18
2024-03-28T01:35:34.739Z,792.91
2024-03-28T01:35:44.744Z,792.71
2024-03-28T01:35:54.755Z,792.75
2024-03-28T01:36:04.772Z,792.98
2024-03-28T01:36:14.764Z,792.83
2024-03-28T01:36:24.750Z,793.07
2024-03-28T01:36:34.760Z,792.95
2024-03-28T01:36:44.753Z,792.46
2024-03-28T01:36:54.746Z,792.51
2024-03-28T01:37:04.766Z,792.95
2024-03-28T01:37:14.785Z,792.81
2024-03-28T01:37:24.757Z,792.62
2024-03-28T01:37:35.183Z,793.15
2024-03-28T01:37:45.644Z,793.06
2024-03-28T01:37:54.752Z,792.85
2024-03-28T01:38:04.754Z,792.97
2024-03-28T01:38:14.746Z,792.68
2024-03-28T01:38:24.759Z,792.83
2024-03-28T01:38:44.753Z,792.52
2024-03-28T01:38:54.774Z,792.15
2024-03-28T01:39:04.761Z,792.12
2024-03-28T01:39:14.769Z,792.73
2024-03-28T01:39:24.768Z,792.37
2024-03-28T01:39:34.748Z,792.44
2024-03-28T01:39:54.755Z,791.73
2024-03-28T01:40:04.771Z,792.43
2024-03-28T01:40:14.796Z,793.32
2024-03-28T01:40:24.751Z,792.69
2024-03-28T01:40:34.767Z,791.98
2024-03-28T01:40:44.793Z,792.15
2024-03-28T01:40:54.768Z,792.19
2024-03-28T01:41:04.772Z,792.60
2024-03-28T01:41:14.809Z,792.08
2024-03-28T01:41:24.768Z,791.78
2024-03-28T01:41:34.839Z,792.22
2024-03-28T01:41:44.761Z,791.94
2024-03-28T01:41:54.779Z,792.37
2024-03-28T01:42:14.751Z,792.49
2024-03-28T01:42:24.769Z,792.05
2024-03-28T01:42:34.771Z,792.00
2024-03-28T01:42:44.786Z,792.64
2024-03-28T01:42:54.770Z,792.21
2024-03-28T01:43:04.784Z,791.99
2024-03-28T01:43:15.657Z,791.72
2024-03-28T01:43:24.777Z,791.53
2024-03-28T01:43:44.766Z,791.45
2024-03-28T01:43:55.648Z,791.87
2024-03-28T01:44:04.778Z,791.84
2024-03-28T01:44:14.789Z,792.03
2024-03-28T01:44:24.789Z,792.28
2024-03-28T01:44:34.935Z,791.82
2024-03-28T01:44:44.770Z,792.03
2024-03-28T01:45:04.787Z,791.85
2024-03-28T01:45:14.785Z,792.38
2024-03-28T01:45:24.771Z,792.81
2024-03-28T01:45:34.791Z,791.72
2024-03-28T01:45:44.795Z,792.49
2024-03-28T01:45:54.788Z,792.02
2024-03-28T01:46:04.993Z,791.61
2024-03-28T01:46:20.068Z,791.94
2024-03-28T01:46:40.232Z,791.87
2024-03-28T01:46:43.484Z,791.70
2024-03-28T01:46:49.472Z,791.69
2024-03-28T01:47:17.129Z,791.62
2024-03-28T01:47:25.368Z,791.72
2024-03-28T01:47:35.364Z,791.77
2024-03-28T01:47:42.095Z,791.72
2024-03-28T01:47:48.676Z,791.49
2024-03-28T01:47:54.123Z,791.52
2024-03-28T01:48:05.856Z,791.59
2024-03-28T01:48:24.794Z,792.02
2024-03-28T01:48:34.799Z,791.79
2024-03-28T01:48:44.852Z,791.84
2024-03-28T01:48:54.808Z,792.34
2024-03-28T01:49:04.818Z,791.94
2024-03-28T01:49:14.820Z,791.65
2024-03-28T01:49:24.803Z,791.71
2024-03-28T01:49:34.798Z,791.95
2024-03-28T01:49:54.829Z,791.80
2024-03-28T01:50:04.802Z,791.76
2024-03-28T01:50:14.814Z,791.80
2024-03-28T01:50:24.802Z,791.70
2024-03-28T01:50:34.814Z,791.75
2024-03-28T01:50:44.816Z,791.40
2024-03-28T01:50:54.978Z,791.12
2024-03-28T01:51:04.798Z,791.30
2024-03-28T01:51:14.802Z,791.34
2024-03-28T01:51:24.798Z,791.39
2024-03-28T01:51:34.852Z,791.25
2024-03-28T01:51:54.808Z,791.21
2024-03-28T01:52:04.807Z,791.04
2024-03-28T01:52:14.869Z,791.49
2024-03-28T01:52:24.818Z,791.11
2024-03-28T01:52:34.803Z,791.05
2024-03-28T01:52:44.820Z,791.77
2024-03-28T01:52:54.823Z,791.69
2024-03-28T01:53:14.824Z,791.16
2024-03-28T01:53:24.820Z,792.18
2024-03-28T01:53:34.846Z,791.81
2024-03-28T01:53:44.828Z,791.44
2024-03-28T01:53:54.823Z,791.07
2024-03-28T01:54:04.820Z,791.78
2024-03-28T01:54:14.832Z,790.89
2024-03-28T01:54:24.822Z,791.35
2024-03-28T01:54:34.831Z,791.33
2024-03-28T01:54:44.830Z,791.25
2024-03-28T01:54:54.825Z,790.73
2024-03-28T01:55:04.888Z,791.19
2024-03-28T01:55:14.889Z,791.54
2024-03-28T01:55:24.816Z,791.73
2024-03-28T01:55:34.830Z,792.21
2024-03-28T01:55:44.830Z,791.84
2024-03-28T01:55:54.843Z,791.59
2024-03-28T01:56:14.839Z,791.53
2024-03-28T01:56:24.858Z,792.18
2024-03-28T01:56:34.843Z,791.93
2024-03-28T01:56:44.822Z,791.27
2024-03-28T01:56:54.836Z,791.69
2024-03-28T01:57:04.834Z,792.10
2024-03-28T01:57:15.168Z,791.75
2024-03-28T01:57:34.885Z,791.61
2024-03-28T01:57:44.843Z,791.46
2024-03-28T01:57:54.827Z,791.69
2024-03-28T01:58:04.836Z,791.77
2024-03-28T01:58:14.879Z,791.48
2024-03-28T01:58:24.835Z,791.71
2024-03-28T01:58:34.883Z,791.86
2024-03-28T01:58:44.835Z,791.78
2024-03-28T01:58:54.874Z,792.65
2024-03-28T01:59:04.833Z,792.19
2024-03-28T01:59:14.868Z,792.14
2024-03-28T01:59:24.856Z,791.59
2024-03-28T01:59:34.851Z,792.00
2024-03-28T01:59:44.860Z,791.80
2024-03-28T02:00:04.867Z,792.04
2024-03-28T02:00:14.852Z,791.99
2024-03-28T02:00:24.872Z,791.99
2024-03-28T02:00:34.870Z,791.74
2024-03-28T02:00:44.839Z,792.06
2024-03-28T02:00:55.640Z,792.02
2024-03-28T02:01:14.883Z,791.88
2024-03-28T02:01:24.886Z,791.85
2024-03-28T02:01:34.862Z,791.55
2024-03-28T02:01:44.863Z,792.06
2024-03-28T02:01:54.863Z,792.41
2024-03-28T02:02:04.863Z,792.62
2024-03-28T02:02:14.852Z,791.52
2024-03-28T02:02:24.870Z,791.85
2024-03-28T02:02:34.885Z,792.09
2024-03-28T02:02:44.878Z,791.95
2024-03-28T02:02:54.856Z,795.24
2024-03-28T02:03:04.857Z,792.22
2024-03-28T02:03:14.856Z,791.99
2024-03-28T02:03:34.871Z,791.85
2024-03-28T02:03:44.870Z,791.66
2024-03-28T02:03:54.883Z,791.94
2024-03-28T02:04:04.882Z,792.66
2024-03-28T02:04:14.867Z,792.25
2024-03-28T02:04:24.886Z,791.71
2024-03-28T02:04:34.863Z,791.52
2024-03-28T02:04:44.884Z,791.57
2024-03-28T02:05:04.882Z,791.83
2024-03-28T02:05:14.897Z,791.32
2024-03-28T02:05:24.884Z,791.68
2024-03-28T02:05:34.883Z,791.24
2024-03-28T02:05:44.878Z,791.11
2024-03-28T02:05:54.882Z,790.78
2024-03-28T02:06:04.922Z,791.93
2024-03-28T02:06:14.889Z,791.82
2024-03-28T02:06:24.880Z,792.38
2024-03-28T02:06:34.890Z,792.11
2024-03-28T02:06:44.888Z,791.69
2024-03-28T02:06:54.904Z,792.07
2024-03-28T02:07:14.913Z,792.02
2024-03-28T02:07:24.892Z,791.53
2024-03-28T02:07:34.918Z,791.41
2024-03-28T02:07:44.927Z,791.62
2024-03-28T02:07:54.881Z,791.37
2024-03-28T02:08:04.880Z,791.81
2024-03-28T02:08:14.916Z,791.93
2024-03-28T02:08:24.890Z,791.77
2024-03-28T02:08:34.886Z,791.23
2024-03-28T02:08:54.900Z,790.93
2024-03-28T02:09:04.904Z,791.08
2024-03-28T02:09:14.895Z,791.02
2024-03-28T02:09:24.882Z,790.99
2024-03-28T02:09:34.934Z,790.92
2024-03-28T02:09:44.896Z,790.99
2024-03-28T02:09:54.893Z,791.38
2024-03-28T02:10:04.889Z,790.86
2024-03-28T02:10:14.910Z,790.86
2024-03-28T02:10:24.903Z,791.09
2024-03-28T02:10:34.920Z,790.75
2024-03-28T02:10:44.891Z,790.46
2024-03-28T02:10:54.922Z,790.39
2024-03-28T02:11:04.915Z,790.11
2024-03-28T02:11:14.888Z,790.53
2024-03-28T02:11:25.650Z,790.92
2024-03-28T02:11:35.633Z,790.66
2024-03-28T02:11:44.918Z,789.94
2024-03-28T02:12:04.919Z,790.47
2024-03-28T02:12:14.890Z,789.96
2024-03-28T02:12:24.911Z,790.30
2024-03-28T02:12:34.944Z,789.86
2024-03-28T02:12:44.918Z,789.87
2024-03-28T02:12:54.914Z,789.64
2024-03-28T02:13:04.907Z,789.45
2024-03-28T02:13:14.905Z,789.60
2024-03-28T02:13:34.923Z,788.90
2024-03-28T02:13:44.919Z,789.18
2024-03-28T02:13:54.922Z,789.16
2024-03-28T02:14:04.916Z,789.00
2024-03-28T02:14:14.928Z,788.72
2024-03-28T02:14:24.945Z,788.80
2024-03-28T02:14:34.972Z,788.70
2024-03-28T02:14:44.911Z,788.49
2024-03-28T02:15:04.926Z,788.51
2024-03-28T02:15:14.926Z,789.35
2024-03-28T02:15:25.070Z,788.82
2024-03-28T02:15:34.952Z,789.10
2024-03-28T02:15:44.928Z,788.68
2024-03-28T02:15:54.916Z,788.19
2024-03-28T02:16:04.955Z,788.16
2024-03-28T02:16:14.932Z,788.12